Anita, PA

3:41 AM EST on February 11, 2016 (GMT -0500)
Holly Terrace | | Change Station
CLOSE
Current Station
Personal Weather Station
Location: Falls Creek, PA
Elevation: 1473 ft
Nearby Weather Stations
Active Advisory: Winter Weather Advisory Active Notice: Public Information Statement

Elev 1473 ft 41.14 °N, 78.81 °W | Updated 4 seconds ago

Haze
Haze
12.0 °F
Feels Like -3 °F
N
14.0
Wind Variable Wind from NNW
Gusts 14.0 mph

Today
High -- | Low -- °F
--% Chance of Precip.
Yesterday
High -- | Low -- °F
Precip. -- in
Pressure 29.80 in
Visibility 6.0 miles
Clouds Overcast 3700 ft
Windchill -3 °F
Dew Point 10 °F
Humidity 90%
Rainfall 0.01 in
Snow Depth Not available.
7:16 AM 5:44 PM
Waxing Crescent, 10% visible
SPECI KDUJ 110834Z AUTO 29016G23KT 6SM HZ OVC037 M12/M17 A2980 RMK AO2 SNE21 P0000 T11171167
Pressure 29.80 in
Visibility 6.0 miles
Clouds Overcast 3700 ft
Windchill -3 °F
Dew Point 10 °F
Humidity 90%
Rainfall 0.01 in
Snow Depth Not available.
7:16 AM 5:44 PM
Waxing Crescent, 10% visible
SPECI KDUJ 110834Z AUTO 29016G23KT 6SM HZ OVC037 M12/M17 A2980 RMK AO2 SNE21 P0000 T11171167

10-Day Weather Forecast

Almanac

Astronomy

Feb. 11, 2016 Rise Set
Actual Time
Civil Twilight
Nautical Twilight
Astronomical Twilight
Moon
Length of Visible Light
Length of Day
Tomorrow will be .
, % of the Moon is Illuminated

Today's Extremes

State Highs State Lows

Community

WunderPhotos

Upload Photos

1,892,030 photos uploaded!

WunderBlog® & News

Nearby

Air Quality

  Air Quality AQ Index Pollutant
Not available.

Snow Depth

Station Depth Elevation

Earthquake Activity

City Distance Mag. Time & Date
Minimum magnitude displayed is 2.5.

Coastal Water Temperatures

Place Temperature

Stations

Nearby Weather Stations

Station Location Temp. Windchill Dew Point Humidity Wind Precip. Elev Updated Type
                   

Watches & Warnings

Winter Weather Advisory
Issued: 2:58 AM EST Feb. 11, 2016 – National Weather Service

... Winter Weather Advisory remains in effect until 7 am EST this
morning...

* additional snow accumulation... locally 2 to 3 inches in
persistent snow squalls... otherwise an inch or less.

* Snow ending... snow showers will gradually diminish today.

* Impacts... hazardous travel conditions are expected due to snow.

Precautionary/preparedness actions...

A Winter Weather Advisory for snow means that periods of snow
will cause primarily travel difficulties. Be prepared for snow
covered roads and limited visibilities... and use caution while
driving.